Terminal Aerodrome Forecast
Issued by NWS Knoxville/Tri Cities, TN

Home | Current Version | Previous Version | Text Only | Print | Product List | Glossary On
Versions: 1 2 3 4 5 6 7 8 9 10 11 12 13 14 15 16 17 18 19 20 21 22 23 24 25 26 27 28 29 30 31 32 33 34 35 36 37 38 39 40 41 42 43 44 45 46 47 48
000
FTUS44 KMRX 040536
TAFTRI
TAF
KTRI 040536Z 0406/0506 22008KT P6SM VCSH SCT025 BKN030 OVC040
      TEMPO 0406/0409 4SM -SHRA BR BKN020
     FM041200 24006KT P6SM VCSH BKN015
     FM041900 25010KT P6SM SCT020 BKN080
     FM050000 25003KT P6SM BKN040=

USA.gov is the U.S. government's official web portal to all federal, state and local government web resources and services.